KPSK/PSK METAR and TAF weather

Enter ICAO airport designator
Station Type Date Time Source
KPSK METAR 2020/07/06 19:15 UTC NOAA

KPSK 061915Z AUTO 16009G14KT 10SM CLR 32/17 A3014 RMK AO2 T03170173


Station Type Date Time Source
KPSK Decoded METAR 2020/07/06 19:15 UTC NOAA

Dublin / New River Valley, VA, United States (KPSK) 37-08N 080-41W
Jul 06, 2020 - 03:15 PM EDT / 2020.07.06 1915 UTC
Wind: from the SSE (160 degrees) at 10 MPH (9 KT) gusting to 16 MPH (14 KT):0
Visibility: 10 mile(s):0
Sky conditions: clear
Temperature: 89.1 F (31.7 C)
Dew Point: 63.1 F (17.3 C)
Relative Humidity: 42%
Pressure (altimeter): 30.14 in. Hg (1020 hPa)
ob: KPSK 061915Z AUTO 16009G14KT 10SM CLR 32/17 A3014 RMK AO2 T03170173
cycle: 19

Station Type Date Time Source
KPSK TAF UTC NOAA

Error!

Example: see airport list